sensor_id;sensor_type;location;lat;lon;timestamp;temperature;humidity
12303;DHT22;6214;48.012;7.862;2024-03-08T00:10:42;2.50;99.90
12303;DHT22;6214;48.012;7.862;2024-03-08T00:13:09;2.50;99.90
12303;DHT22;6214;48.012;7.862;2024-03-08T00:15:36;2.50;99.90
12303;DHT22;6214;48.012;7.862;2024-03-08T09:45:10;12.10;99.90
12303;DHT22;6214;48.012;7.862;2024-03-08T09:50:12;11.50;99.90
12303;DHT22;6214;48.012;7.862;2024-03-08T09:52:42;11.10;99.90
12303;DHT22;6214;48.012;7.862;2024-03-08T15:42:55;12.30;99.90
12303;DHT22;6214;48.012;7.862;2024-03-08T15:45:23;12.30;99.90
12303;DHT22;6214;48.012;7.862;2024-03-08T15:47:50;12.50;99.90
12303;DHT22;6214;48.012;7.862;2024-03-08T15:50:17;12.80;99.90
12303;DHT22;6214;48.012;7.862;2024-03-08T15:52:45;12.90;99.90
12303;DHT22;6214;48.012;7.862;2024-03-08T15:55:17;13.00;99.90
12303;DHT22;6214;48.012;7.862;2024-03-08T15:57:50;12.90;99.90
12303;DHT22;6214;48.012;7.862;2024-03-08T16:00:19;12.70;99.90
12303;DHT22;6214;48.012;7.862;2024-03-08T16:03:03;12.70;99.90
12303;DHT22;6214;48.012;7.862;2024-03-08T16:05:33;12.60;99.90
12303;DHT22;6214;48.012;7.862;2024-03-08T16:08:01;12.50;99.90
12303;DHT22;6214;48.012;7.862;2024-03-08T16:10:29;12.30;99.90
12303;DHT22;6214;48.012;7.862;2024-03-08T16:12:56;12.30;99.90
12303;DHT22;6214;48.012;7.862;2024-03-08T16:15:24;12.20;99.90
12303;DHT22;6214;48.012;7.862;2024-03-08T16:17:52;12.20;99.90
12303;DHT22;6214;48.012;7.862;2024-03-08T16:20:19;12.10;99.90
12303;DHT22;6214;48.012;7.862;2024-03-08T16:22:48;12.00;99.90
12303;DHT22;6214;48.012;7.862;2024-03-08T16:25:18;11.90;99.90
12303;DHT22;6214;48.012;7.862;2024-03-08T16:27:47;11.90;99.90
12303;DHT22;6214;48.012;7.862;2024-03-08T16:30:14;11.80;99.90
12303;DHT22;6214;48.012;7.862;2024-03-08T16:32:45;11.80;99.90
12303;DHT22;6214;48.012;7.862;2024-03-08T16:35:20;11.70;99.90
12303;DHT22;6214;48.012;7.862;2024-03-08T16:37:48;11.80;99.90
12303;DHT22;6214;48.012;7.862;2024-03-08T16:40:18;11.70;99.90
12303;DHT22;6214;48.012;7.862;2024-03-08T16:42:47;11.60;99.90
12303;DHT22;6214;48.012;7.862;2024-03-08T16:45:22;11.50;99.90
12303;DHT22;6214;48.012;7.862;2024-03-08T16:47:50;11.40;99.90
12303;DHT22;6214;48.012;7.862;2024-03-08T16:50:23;11.30;99.90
12303;DHT22;6214;48.012;7.862;2024-03-08T16:52:50;11.10;99.90
12303;DHT22;6214;48.012;7.862;2024-03-08T16:57:50;10.90;99.90
12303;DHT22;6214;48.012;7.862;2024-03-08T17:00:19;10.80;99.90
12303;DHT22;6214;48.012;7.862;2024-03-08T17:02:56;10.70;99.90
12303;DHT22;6214;48.012;7.862;2024-03-08T21:18:04;8.40;99.90
12303;DHT22;6214;48.012;7.862;2024-03-08T21:20:31;8.40;99.90
12303;DHT22;6214;48.012;7.862;2024-03-08T21:22:58;8.40;99.90
12303;DHT22;6214;48.012;7.862;2024-03-08T21:25:26;8.40;99.90
12303;DHT22;6214;48.012;7.862;2024-03-08T21:27:54;8.40;99.90
12303;DHT22;6214;48.012;7.862;2024-03-08T21:30:21;8.30;99.90
12303;DHT22;6214;48.012;7.862;2024-03-08T21:32:48;8.40;99.90
12303;DHT22;6214;48.012;7.862;2024-03-08T21:35:16;8.40;99.90
12303;DHT22;6214;48.012;7.862;2024-03-08T21:37:50;8.30;99.90
12303;DHT22;6214;48.012;7.862;2024-03-08T21:40:17;8.20;99.90
12303;DHT22;6214;48.012;7.862;2024-03-08T21:42:50;8.20;99.90
12303;DHT22;6214;48.012;7.862;2024-03-08T21:45:22;8.20;99.90
12303;DHT22;6214;48.012;7.862;2024-03-08T21:47:53;8.20;99.90
12303;DHT22;6214;48.012;7.862;2024-03-08T21:50:22;8.20;99.90
12303;DHT22;6214;48.012;7.862;2024-03-08T21:52:49;8.10;99.90
12303;DHT22;6214;48.012;7.862;2024-03-08T21:55:17;8.10;99.90
12303;DHT22;6214;48.012;7.862;2024-03-08T21:57:45;8.10;99.90
12303;DHT22;6214;48.012;7.862;2024-03-08T22:00:13;8.10;99.90
12303;DHT22;6214;48.012;7.862;2024-03-08T22:02:45;8.10;99.90
12303;DHT22;6214;48.012;7.862;2024-03-08T22:05:13;8.10;99.90
12303;DHT22;6214;48.012;7.862;2024-03-08T22:10:11;8.00;99.90
12303;DHT22;6214;48.012;7.862;2024-03-08T22:12:53;7.90;99.90
12303;DHT22;6214;48.012;7.862;2024-03-08T22:15:22;8.00;99.90
12303;DHT22;6214;48.012;7.862;2024-03-08T22:17:51;8.00;99.90
12303;DHT22;6214;48.012;7.862;2024-03-08T22:20:23;8.10;99.90
12303;DHT22;6214;48.012;7.862;2024-03-08T22:22:58;8.10;99.90
12303;DHT22;6214;48.012;7.862;2024-03-08T22:25:26;8.10;99.90
12303;DHT22;6214;48.012;7.862;2024-03-08T22:27:54;8.10;99.90
12303;DHT22;6214;48.012;7.862;2024-03-08T22:30:22;8.10;99.90
12303;DHT22;6214;48.012;7.862;2024-03-08T22:32:51;8.10;99.90
12303;DHT22;6214;48.012;7.862;2024-03-08T22:35:22;8.10;99.90
12303;DHT22;6214;48.012;7.862;2024-03-08T22:37:50;8.10;99.90
12303;DHT22;6214;48.012;7.862;2024-03-08T22:40:21;8.10;99.90
12303;DHT22;6214;48.012;7.862;2024-03-08T22:42:53;8.10;99.90
12303;DHT22;6214;48.012;7.862;2024-03-08T22:45:20;8.20;99.90
12303;DHT22;6214;48.012;7.862;2024-03-08T22:47:47;8.20;99.90
12303;DHT22;6214;48.012;7.862;2024-03-08T22:50:16;8.20;99.90
12303;DHT22;6214;48.012;7.862;2024-03-08T22:52:45;8.20;99.90
12303;DHT22;6214;48.012;7.862;2024-03-08T22:55:13;8.20;99.90
12303;DHT22;6214;48.012;7.862;2024-03-08T22:57:47;8.10;99.90
12303;DHT22;6214;48.012;7.862;2024-03-08T23:00:16;8.20;99.90
12303;DHT22;6214;48.012;7.862;2024-03-08T23:02:55;8.20;99.90
12303;DHT22;6214;48.012;7.862;2024-03-08T23:05:24;8.20;99.90
12303;DHT22;6214;48.012;7.862;2024-03-08T23:07:54;8.20;99.90
12303;DHT22;6214;48.012;7.862;2024-03-08T23:10:26;8.20;99.90
12303;DHT22;6214;48.012;7.862;2024-03-08T23:12:57;8.30;99.90
12303;DHT22;6214;48.012;7.862;2024-03-08T23:17:54;8.20;99.90
12303;DHT22;6214;48.012;7.862;2024-03-08T23:20:23;8.30;99.90
12303;DHT22;6214;48.012;7.862;2024-03-08T23:22:59;8.30;99.90
12303;DHT22;6214;48.012;7.862;2024-03-08T23:25:31;8.40;99.90
12303;DHT22;6214;48.012;7.862;2024-03-08T23:27:59;8.40;99.90
12303;DHT22;6214;48.012;7.862;2024-03-08T23:30:38;8.40;99.90
12303;DHT22;6214;48.012;7.862;2024-03-08T23:33:11;8.50;99.90
12303;DHT22;6214;48.012;7.862;2024-03-08T23:35:40;8.40;99.90
12303;DHT22;6214;48.012;7.862;2024-03-08T23:38:07;8.40;99.90
12303;DHT22;6214;48.012;7.862;2024-03-08T23:40:36;8.50;99.90
12303;DHT22;6214;48.012;7.862;2024-03-08T23:43:04;8.50;99.90
12303;DHT22;6214;48.012;7.862;2024-03-08T23:45:31;8.50;99.90
12303;DHT22;6214;48.012;7.862;2024-03-08T23:47:59;8.50;99.90
12303;DHT22;6214;48.012;7.862;2024-03-08T23:50:28;8.50;99.90
12303;DHT22;6214;48.012;7.862;2024-03-08T23:52:59;8.50;99.90
12303;DHT22;6214;48.012;7.862;2024-03-08T23:55:28;8.50;99.90
12303;DHT22;6214;48.012;7.862;2024-03-08T23:57:57;8.50;99.90
